sensor_id;sensor_type;location;lat;lon;timestamp;P1;durP1;ratioP1;P2;durP2;ratioP2
3811;SDS011;1921;49.368;11.068;2022-08-03T00:00:46;58.60;;;51.67;;
3811;SDS011;1921;49.368;11.068;2022-08-03T00:03:12;60.20;;;52.17;;
3811;SDS011;1921;49.368;11.068;2022-08-03T00:05:38;58.33;;;51.90;;
3811;SDS011;1921;49.368;11.068;2022-08-03T00:08:04;60.17;;;52.10;;
3811;SDS011;1921;49.368;11.068;2022-08-03T00:10:29;58.27;;;51.87;;
3811;SDS011;1921;49.368;11.068;2022-08-03T00:12:55;58.33;;;51.93;;
3811;SDS011;1921;49.368;11.068;2022-08-03T00:15:21;60.77;;;52.20;;
3811;SDS011;1921;49.368;11.068;2022-08-03T00:17:47;58.20;;;51.70;;
3811;SDS011;1921;49.368;11.068;2022-08-03T00:20:12;60.40;;;52.20;;
3811;SDS011;1921;49.368;11.068;2022-08-03T00:22:38;59.03;;;52.53;;
3811;SDS011;1921;49.368;11.068;2022-08-03T00:25:04;60.30;;;52.37;;
3811;SDS011;1921;49.368;11.068;2022-08-03T00:27:30;58.20;;;51.80;;
3811;SDS011;1921;49.368;11.068;2022-08-03T00:29:56;58.60;;;52.17;;
3811;SDS011;1921;49.368;11.068;2022-08-03T00:32:22;58.50;;;52.10;;
3811;SDS011;1921;49.368;11.068;2022-08-03T00:34:47;58.90;;;51.83;;
3811;SDS011;1921;49.368;11.068;2022-08-03T00:37:13;58.40;;;52.00;;
3811;SDS011;1921;49.368;11.068;2022-08-03T00:39:39;57.97;;;51.63;;
3811;SDS011;1921;49.368;11.068;2022-08-03T00:42:07;60.60;;;52.10;;
3811;SDS011;1921;49.368;11.068;2022-08-03T00:44:38;58.70;;;52.30;;
3811;SDS011;1921;49.368;11.068;2022-08-03T00:47:08;63.53;;;52.33;;
3811;SDS011;1921;49.368;11.068;2022-08-03T00:49:34;58.83;;;52.27;;
3811;SDS011;1921;49.368;11.068;2022-08-03T00:52:01;59.20;;;52.00;;
3811;SDS011;1921;49.368;11.068;2022-08-03T00:54:28;58.50;;;52.10;;
3811;SDS011;1921;49.368;11.068;2022-08-03T00:56:54;58.83;;;52.03;;
3811;SDS011;1921;49.368;11.068;2022-08-03T00:59:20;64.80;;;52.13;;
3811;SDS011;1921;49.368;11.068;2022-08-03T01:01:47;58.67;;;52.20;;
3811;SDS011;1921;49.368;11.068;2022-08-03T01:04:12;61.27;;;52.03;;
3811;SDS011;1921;49.368;11.068;2022-08-03T01:09:34;57.83;;;51.53;;
3811;SDS011;1921;49.368;11.068;2022-08-03T01:12:34;59.27;;;51.93;;
3811;SDS011;1921;49.368;11.068;2022-08-03T01:23:58;59.07;;;52.60;;
3811;SDS011;1921;49.368;11.068;2022-08-03T01:27:16;57.93;;;51.63;;
3811;SDS011;1921;49.368;11.068;2022-08-03T01:30:03;57.80;;;51.50;;
3811;SDS011;1921;49.368;11.068;2022-08-03T01:32:35;58.30;;;51.87;;
3811;SDS011;1921;49.368;11.068;2022-08-03T01:35:38;58.50;;;52.10;;
3811;SDS011;1921;49.368;11.068;2022-08-03T01:38:16;57.93;;;51.63;;
3811;SDS011;1921;49.368;11.068;2022-08-03T01:40:48;59.97;;;52.20;;
3811;SDS011;1921;49.368;11.068;2022-08-03T01:43:18;57.67;;;51.20;;
3811;SDS011;1921;49.368;11.068;2022-08-03T01:45:48;58.83;;;52.37;;
3811;SDS011;1921;49.368;11.068;2022-08-03T01:48:16;64.23;;;51.67;;
3811;SDS011;1921;49.368;11.068;2022-08-03T01:50:43;58.63;;;52.20;;
3811;SDS011;1921;49.368;11.068;2022-08-03T01:53:12;58.60;;;52.20;;
3811;SDS011;1921;49.368;11.068;2022-08-03T01:55:41;58.70;;;52.30;;
3811;SDS011;1921;49.368;11.068;2022-08-03T01:58:12;59.47;;;52.07;;
3811;SDS011;1921;49.368;11.068;2022-08-03T02:00:40;58.63;;;52.13;;
3811;SDS011;1921;49.368;11.068;2022-08-03T02:03:07;61.63;;;52.30;;
3811;SDS011;1921;49.368;11.068;2022-08-03T02:05:36;61.33;;;52.00;;
3811;SDS011;1921;49.368;11.068;2022-08-03T02:08:05;58.87;;;52.47;;
3811;SDS011;1921;49.368;11.068;2022-08-03T02:10:34;58.23;;;51.87;;
3811;SDS011;1921;49.368;11.068;2022-08-03T02:13:02;59.40;;;52.27;;
3811;SDS011;1921;49.368;11.068;2022-08-03T02:15:31;60.87;;;51.93;;
3811;SDS011;1921;49.368;11.068;2022-08-03T02:17:59;59.20;;;52.70;;
3811;SDS011;1921;49.368;11.068;2022-08-03T02:20:28;58.73;;;52.07;;
3811;SDS011;1921;49.368;11.068;2022-08-03T02:22:57;58.07;;;51.73;;
3811;SDS011;1921;49.368;11.068;2022-08-03T02:25:23;59.20;;;52.50;;
3811;SDS011;1921;49.368;11.068;2022-08-03T02:27:54;58.30;;;51.90;;
3811;SDS011;1921;49.368;11.068;2022-08-03T02:30:26;58.37;;;52.03;;
3811;SDS011;1921;49.368;11.068;2022-08-03T02:33:00;58.20;;;51.90;;
3811;SDS011;1921;49.368;11.068;2022-08-03T02:35:26;59.60;;;52.30;;
3811;SDS011;1921;49.368;11.068;2022-08-03T02:37:58;58.83;;;52.30;;
3811;SDS011;1921;49.368;11.068;2022-08-03T02:40:28;58.60;;;52.30;;
3811;SDS011;1921;49.368;11.068;2022-08-03T02:42:58;59.37;;;52.90;;
3811;SDS011;1921;49.368;11.068;2022-08-03T02:45:27;58.53;;;52.23;;
3811;SDS011;1921;49.368;11.068;2022-08-03T02:47:57;59.37;;;52.70;;
3811;SDS011;1921;49.368;11.068;2022-08-03T02:50:26;59.00;;;52.60;;
3811;SDS011;1921;49.368;11.068;2022-08-03T02:52:54;58.30;;;52.00;;
3811;SDS011;1921;49.368;11.068;2022-08-03T02:55:22;58.73;;;52.23;;
3811;SDS011;1921;49.368;11.068;2022-08-03T02:57:50;59.40;;;52.93;;
3811;SDS011;1921;49.368;11.068;2022-08-03T03:00:18;58.63;;;52.00;;
3811;SDS011;1921;49.368;11.068;2022-08-03T03:02:44;58.90;;;52.50;;
3811;SDS011;1921;49.368;11.068;2022-08-03T03:05:11;58.63;;;52.23;;
3811;SDS011;1921;49.368;11.068;2022-08-03T03:07:38;60.43;;;52.57;;
3811;SDS011;1921;49.368;11.068;2022-08-03T03:10:06;58.57;;;52.27;;
3811;SDS011;1921;49.368;11.068;2022-08-03T03:12:34;58.50;;;52.10;;
3811;SDS011;1921;49.368;11.068;2022-08-03T03:15:03;60.13;;;52.00;;
3811;SDS011;1921;49.368;11.068;2022-08-03T03:17:30;59.03;;;52.47;;
3811;SDS011;1921;49.368;11.068;2022-08-03T03:19:58;59.33;;;52.93;;
3811;SDS011;1921;49.368;11.068;2022-08-03T03:22:24;60.70;;;53.37;;
3811;SDS011;1921;49.368;11.068;2022-08-03T03:24:51;59.50;;;53.00;;
3811;SDS011;1921;49.368;11.068;2022-08-03T03:27:18;59.97;;;53.43;;
3811;SDS011;1921;49.368;11.068;2022-08-03T03:29:45;60.00;;;53.37;;
3811;SDS011;1921;49.368;11.068;2022-08-03T03:32:12;59.07;;;52.70;;
3811;SDS011;1921;49.368;11.068;2022-08-03T03:34:38;59.77;;;53.20;;
3811;SDS011;1921;49.368;11.068;2022-08-03T03:37:04;61.33;;;52.90;;
3811;SDS011;1921;49.368;11.068;2022-08-03T03:39:30;60.40;;;52.60;;
3811;SDS011;1921;49.368;11.068;2022-08-03T03:41:56;59.00;;;52.60;;
3811;SDS011;1921;49.368;11.068;2022-08-03T03:44:25;59.73;;;52.43;;
3811;SDS011;1921;49.368;11.068;2022-08-03T03:46:53;60.17;;;53.60;;
3811;SDS011;1921;49.368;11.068;2022-08-03T03:49:23;60.07;;;53.47;;
3811;SDS011;1921;49.368;11.068;2022-08-03T03:51:51;62.97;;;53.33;;
3811;SDS011;1921;49.368;11.068;2022-08-03T03:54:18;62.80;;;53.70;;
3811;SDS011;1921;49.368;11.068;2022-08-03T03:56:45;60.97;;;53.60;;
3811;SDS011;1921;49.368;11.068;2022-08-03T03:59:11;61.07;;;53.30;;
3811;SDS011;1921;49.368;11.068;2022-08-03T04:01:37;62.27;;;53.60;;
3811;SDS011;1921;49.368;11.068;2022-08-03T04:04:03;59.17;;;52.67;;
3811;SDS011;1921;49.368;11.068;2022-08-03T04:06:48;60.73;;;54.07;;
3811;SDS011;1921;49.368;11.068;2022-08-03T04:09:37;59.90;;;53.40;;
3811;SDS011;1921;49.368;11.068;2022-08-03T04:12:24;59.80;;;53.40;;
3811;SDS011;1921;49.368;11.068;2022-08-03T04:14:52;59.87;;;53.30;;
3811;SDS011;1921;49.368;11.068;2022-08-03T04:17:21;59.80;;;53.30;;
3811;SDS011;1921;49.368;11.068;2022-08-03T04:19:52;62.13;;;54.03;;
3811;SDS011;1921;49.368;11.068;2022-08-03T04:22:21;60.83;;;54.00;;
3811;SDS011;1921;49.368;11.068;2022-08-03T04:24:54;61.83;;;54.37;;
3811;SDS011;1921;49.368;11.068;2022-08-03T04:27:35;63.13;;;54.80;;
3811;SDS011;1921;49.368;11.068;2022-08-03T04:30:04;67.63;;;54.60;;
3811;SDS011;1921;49.368;11.068;2022-08-03T04:32:33;64.73;;;55.30;;
3811;SDS011;1921;49.368;11.068;2022-08-03T04:35:01;66.27;;;55.70;;
3811;SDS011;1921;49.368;11.068;2022-08-03T04:37:48;67.20;;;54.73;;
3811;SDS011;1921;49.368;11.068;2022-08-03T04:40:19;69.27;;;56.27;;
3811;SDS011;1921;49.368;11.068;2022-08-03T04:42:54;69.10;;;56.37;;
3811;SDS011;1921;49.368;11.068;2022-08-03T04:45:22;65.93;;;55.97;;
3811;SDS011;1921;49.368;11.068;2022-08-03T04:47:49;67.43;;;56.97;;
3811;SDS011;1921;49.368;11.068;2022-08-03T04:50:16;69.33;;;56.33;;
3811;SDS011;1921;49.368;11.068;2022-08-03T04:52:43;69.03;;;56.77;;
3811;SDS011;1921;49.368;11.068;2022-08-03T04:55:09;71.13;;;56.80;;
3811;SDS011;1921;49.368;11.068;2022-08-03T04:57:35;67.67;;;56.90;;
3811;SDS011;1921;49.368;11.068;2022-08-03T05:00:01;70.60;;;57.17;;
3811;SDS011;1921;49.368;11.068;2022-08-03T05:02:28;69.40;;;57.10;;
3811;SDS011;1921;49.368;11.068;2022-08-03T05:04:55;67.80;;;56.60;;
3811;SDS011;1921;49.368;11.068;2022-08-03T05:07:21;74.10;;;56.80;;
3811;SDS011;1921;49.368;11.068;2022-08-03T05:09:46;69.17;;;57.37;;
3811;SDS011;1921;49.368;11.068;2022-08-03T05:12:12;74.97;;;56.90;;
3811;SDS011;1921;49.368;11.068;2022-08-03T05:14:38;75.13;;;57.40;;
3811;SDS011;1921;49.368;11.068;2022-08-03T05:17:04;69.20;;;56.97;;
3811;SDS011;1921;49.368;11.068;2022-08-03T05:19:30;70.90;;;57.67;;
3811;SDS011;1921;49.368;11.068;2022-08-03T05:21:57;70.90;;;57.87;;
3811;SDS011;1921;49.368;11.068;2022-08-03T05:24:22;73.10;;;58.77;;
3811;SDS011;1921;49.368;11.068;2022-08-03T05:26:48;75.07;;;58.13;;
3811;SDS011;1921;49.368;11.068;2022-08-03T05:29:14;71.60;;;57.50;;
3811;SDS011;1921;49.368;11.068;2022-08-03T05:31:40;70.70;;;57.83;;
3811;SDS011;1921;49.368;11.068;2022-08-03T05:34:05;71.97;;;57.40;;
3811;SDS011;1921;49.368;11.068;2022-08-03T05:36:31;74.43;;;57.80;;
3811;SDS011;1921;49.368;11.068;2022-08-03T05:38:57;76.17;;;57.80;;
3811;SDS011;1921;49.368;11.068;2022-08-03T05:41:23;91.03;;;59.20;;
3811;SDS011;1921;49.368;11.068;2022-08-03T05:43:49;76.90;;;59.07;;
3811;SDS011;1921;49.368;11.068;2022-08-03T05:46:16;74.93;;;57.67;;
3811;SDS011;1921;49.368;11.068;2022-08-03T05:48:42;71.07;;;58.00;;
3811;SDS011;1921;49.368;11.068;2022-08-03T05:51:09;69.97;;;57.47;;
3811;SDS011;1921;49.368;11.068;2022-08-03T05:53:40;73.47;;;58.50;;
3811;SDS011;1921;49.368;11.068;2022-08-03T05:56:07;70.37;;;57.53;;
3811;SDS011;1921;49.368;11.068;2022-08-03T05:58:33;70.40;;;57.70;;
3811;SDS011;1921;49.368;11.068;2022-08-03T06:00:59;74.30;;;57.40;;
3811;SDS011;1921;49.368;11.068;2022-08-03T06:03:25;70.43;;;57.53;;
3811;SDS011;1921;49.368;11.068;2022-08-03T06:05:52;70.63;;;57.50;;
3811;SDS011;1921;49.368;11.068;2022-08-03T06:08:20;70.20;;;57.43;;
3811;SDS011;1921;49.368;11.068;2022-08-03T06:10:46;70.63;;;57.30;;
3811;SDS011;1921;49.368;11.068;2022-08-03T06:13:12;68.63;;;56.20;;
3811;SDS011;1921;49.368;11.068;2022-08-03T06:15:38;69.90;;;57.17;;
3811;SDS011;1921;49.368;11.068;2022-08-03T06:18:04;69.57;;;56.77;;
3811;SDS011;1921;49.368;11.068;2022-08-03T06:20:31;70.43;;;56.90;;
3811;SDS011;1921;49.368;11.068;2022-08-03T06:22:57;70.80;;;56.63;;
3811;SDS011;1921;49.368;11.068;2022-08-03T06:25:24;73.00;;;57.30;;
3811;SDS011;1921;49.368;11.068;2022-08-03T06:27:50;69.60;;;56.30;;
3811;SDS011;1921;49.368;11.068;2022-08-03T06:30:16;68.40;;;55.90;;
3811;SDS011;1921;49.368;11.068;2022-08-03T06:32:43;69.87;;;56.60;;
3811;SDS011;1921;49.368;11.068;2022-08-03T06:35:09;71.50;;;55.80;;
3811;SDS011;1921;49.368;11.068;2022-08-03T06:37:44;71.40;;;56.07;;
3811;SDS011;1921;49.368;11.068;2022-08-03T06:40:14;70.47;;;55.30;;
3811;SDS011;1921;49.368;11.068;2022-08-03T06:42:43;72.40;;;56.17;;
3811;SDS011;1921;49.368;11.068;2022-08-03T06:45:09;74.03;;;56.07;;
3811;SDS011;1921;49.368;11.068;2022-08-03T06:47:36;74.77;;;56.27;;
3811;SDS011;1921;49.368;11.068;2022-08-03T06:50:06;69.17;;;55.97;;
3811;SDS011;1921;49.368;11.068;2022-08-03T06:52:33;68.07;;;56.13;;
3811;SDS011;1921;49.368;11.068;2022-08-03T06:54:59;77.37;;;55.60;;
3811;SDS011;1921;49.368;11.068;2022-08-03T06:57:25;69.50;;;55.50;;
3811;SDS011;1921;49.368;11.068;2022-08-03T06:59:50;71.40;;;55.83;;
3811;SDS011;1921;49.368;11.068;2022-08-03T07:02:16;69.10;;;56.07;;
3811;SDS011;1921;49.368;11.068;2022-08-03T07:04:46;73.73;;;56.33;;
3811;SDS011;1921;49.368;11.068;2022-08-03T07:07:12;71.40;;;56.40;;
3811;SDS011;1921;49.368;11.068;2022-08-03T07:09:38;78.90;;;56.70;;
3811;SDS011;1921;49.368;11.068;2022-08-03T07:12:04;74.93;;;56.40;;
3811;SDS011;1921;49.368;11.068;2022-08-03T07:14:30;71.93;;;55.67;;
3811;SDS011;1921;49.368;11.068;2022-08-03T07:16:56;72.53;;;56.03;;
3811;SDS011;1921;49.368;11.068;2022-08-03T07:19:22;72.10;;;56.37;;
3811;SDS011;1921;49.368;11.068;2022-08-03T07:21:47;73.20;;;56.70;;
3811;SDS011;1921;49.368;11.068;2022-08-03T07:24:13;70.80;;;56.07;;
3811;SDS011;1921;49.368;11.068;2022-08-03T07:26:39;69.80;;;56.10;;
3811;SDS011;1921;49.368;11.068;2022-08-03T07:29:05;68.30;;;55.73;;
3811;SDS011;1921;49.368;11.068;2022-08-03T07:31:31;69.30;;;56.37;;
3811;SDS011;1921;49.368;11.068;2022-08-03T07:33:57;69.93;;;56.20;;
3811;SDS011;1921;49.368;11.068;2022-08-03T07:36:23;74.17;;;56.70;;
3811;SDS011;1921;49.368;11.068;2022-08-03T07:38:49;68.90;;;55.60;;
3811;SDS011;1921;49.368;11.068;2022-08-03T07:41:14;71.03;;;56.30;;
3811;SDS011;1921;49.368;11.068;2022-08-03T07:43:40;69.63;;;56.17;;
3811;SDS011;1921;49.368;11.068;2022-08-03T07:46:06;70.43;;;56.43;;
3811;SDS011;1921;49.368;11.068;2022-08-03T07:48:33;70.57;;;55.80;;
3811;SDS011;1921;49.368;11.068;2022-08-03T07:50:58;71.17;;;56.10;;
3811;SDS011;1921;49.368;11.068;2022-08-03T07:53:24;71.10;;;55.80;;
3811;SDS011;1921;49.368;11.068;2022-08-03T07:55:50;72.33;;;55.90;;
3811;SDS011;1921;49.368;11.068;2022-08-03T07:58:16;69.00;;;55.47;;
3811;SDS011;1921;49.368;11.068;2022-08-03T08:00:42;74.20;;;56.40;;
3811;SDS011;1921;49.368;11.068;2022-08-03T08:03:09;73.20;;;56.03;;
3811;SDS011;1921;49.368;11.068;2022-08-03T08:05:35;70.33;;;56.10;;
3811;SDS011;1921;49.368;11.068;2022-08-03T08:08:01;71.05;;;56.45;;
3811;SDS011;1921;49.368;11.068;2022-08-03T08:10:28;71.50;;;56.10;;
3811;SDS011;1921;49.368;11.068;2022-08-03T08:12:54;71.40;;;56.10;;
3811;SDS011;1921;49.368;11.068;2022-08-03T08:15:21;71.32;;;56.53;;
3811;SDS011;1921;49.368;11.068;2022-08-03T08:17:48;71.75;;;56.38;;
3811;SDS011;1921;49.368;11.068;2022-08-03T08:20:20;71.75;;;56.72;;
3811;SDS011;1921;49.368;11.068;2022-08-03T08:22:50;72.97;;;56.33;;
3811;SDS011;1921;49.368;11.068;2022-08-03T08:25:16;74.50;;;56.47;;
3811;SDS011;1921;49.368;11.068;2022-08-03T08:27:43;74.93;;;56.80;;
3811;SDS011;1921;49.368;11.068;2022-08-03T08:30:11;70.97;;;56.63;;
3811;SDS011;1921;49.368;11.068;2022-08-03T08:32:39;71.57;;;56.85;;
3811;SDS011;1921;49.368;11.068;2022-08-03T08:35:05;73.03;;;57.00;;
3811;SDS011;1921;49.368;11.068;2022-08-03T08:37:32;75.35;;;56.58;;
3811;SDS011;1921;49.368;11.068;2022-08-03T08:39:58;73.10;;;55.97;;
3811;SDS011;1921;49.368;11.068;2022-08-03T08:42:24;71.68;;;57.00;;
3811;SDS011;1921;49.368;11.068;2022-08-03T08:44:50;74.97;;;56.30;;
3811;SDS011;1921;49.368;11.068;2022-08-03T08:47:19;72.28;;;56.80;;
3811;SDS011;1921;49.368;11.068;2022-08-03T08:49:53;76.13;;;56.90;;
3811;SDS011;1921;49.368;11.068;2022-08-03T08:52:26;72.47;;;57.10;;
3811;SDS011;1921;49.368;11.068;2022-08-03T08:54:54;79.35;;;57.75;;
3811;SDS011;1921;49.368;11.068;2022-08-03T08:57:28;73.70;;;56.97;;
3811;SDS011;1921;49.368;11.068;2022-08-03T09:00:01;77.72;;;57.28;;
3811;SDS011;1921;49.368;11.068;2022-08-03T09:02:38;76.82;;;57.30;;
3811;SDS011;1921;49.368;11.068;2022-08-03T09:05:15;76.07;;;57.40;;
3811;SDS011;1921;49.368;11.068;2022-08-03T09:07:43;75.63;;;57.75;;
3811;SDS011;1921;49.368;11.068;2022-08-03T09:10:12;76.38;;;57.00;;
3811;SDS011;1921;49.368;11.068;2022-08-03T09:12:45;74.75;;;57.33;;
3811;SDS011;1921;49.368;11.068;2022-08-03T09:15:22;70.53;;;56.22;;
3811;SDS011;1921;49.368;11.068;2022-08-03T09:17:57;73.68;;;57.05;;
3811;SDS011;1921;49.368;11.068;2022-08-03T09:20:26;75.03;;;57.53;;
3811;SDS011;1921;49.368;11.068;2022-08-03T09:25:39;71.57;;;56.55;;
3811;SDS011;1921;49.368;11.068;2022-08-03T09:30:34;74.03;;;57.08;;
3811;SDS011;1921;49.368;11.068;2022-08-03T09:33:06;70.57;;;56.45;;
3811;SDS011;1921;49.368;11.068;2022-08-03T09:35:45;70.57;;;56.28;;
3811;SDS011;1921;49.368;11.068;2022-08-03T09:38:20;73.93;;;57.20;;
3811;SDS011;1921;49.368;11.068;2022-08-03T09:40:51;71.28;;;57.03;;
3811;SDS011;1921;49.368;11.068;2022-08-03T09:43:18;70.93;;;57.10;;
3811;SDS011;1921;49.368;11.068;2022-08-03T09:45:44;71.68;;;57.15;;
3811;SDS011;1921;49.368;11.068;2022-08-03T09:48:20;70.22;;;56.45;;
3811;SDS011;1921;49.368;11.068;2022-08-03T09:50:51;70.15;;;56.65;;
3811;SDS011;1921;49.368;11.068;2022-08-03T09:53:22;70.55;;;56.28;;
3811;SDS011;1921;49.368;11.068;2022-08-03T09:55:58;70.68;;;56.03;;
3811;SDS011;1921;49.368;11.068;2022-08-03T09:58:26;69.90;;;56.13;;
3811;SDS011;1921;49.368;11.068;2022-08-03T10:03:25;69.07;;;56.05;;
3811;SDS011;1921;49.368;11.068;2022-08-03T10:05:53;72.30;;;56.40;;
3811;SDS011;1921;49.368;11.068;2022-08-03T10:08:20;70.72;;;56.55;;
3811;SDS011;1921;49.368;11.068;2022-08-03T10:10:50;70.55;;;55.80;;
3811;SDS011;1921;49.368;11.068;2022-08-03T10:14:04;69.30;;;56.15;;
3811;SDS011;1921;49.368;11.068;2022-08-03T10:16:33;73.82;;;55.95;;
3811;SDS011;1921;49.368;11.068;2022-08-03T10:19:05;69.97;;;55.70;;
3811;SDS011;1921;49.368;11.068;2022-08-03T10:21:33;69.15;;;55.85;;
3811;SDS011;1921;49.368;11.068;2022-08-03T10:24:05;69.90;;;56.15;;
3811;SDS011;1921;49.368;11.068;2022-08-03T10:26:35;69.85;;;56.10;;
3811;SDS011;1921;49.368;11.068;2022-08-03T10:29:04;71.80;;;56.47;;
3811;SDS011;1921;49.368;11.068;2022-08-03T10:31:39;69.60;;;56.30;;
3811;SDS011;1921;49.368;11.068;2022-08-03T10:34:21;70.78;;;56.63;;
3811;SDS011;1921;49.368;11.068;2022-08-03T10:36:48;70.57;;;56.15;;
3811;SDS011;1921;49.368;11.068;2022-08-03T10:39:21;69.65;;;56.10;;
3811;SDS011;1921;49.368;11.068;2022-08-03T10:41:51;69.13;;;56.08;;
3811;SDS011;1921;49.368;11.068;2022-08-03T10:44:19;70.45;;;56.33;;
3811;SDS011;1921;49.368;11.068;2022-08-03T10:46:48;74.90;;;56.35;;
3811;SDS011;1921;49.368;11.068;2022-08-03T10:49:18;69.05;;;55.70;;
3811;SDS011;1921;49.368;11.068;2022-08-03T10:51:45;70.75;;;56.15;;
3811;SDS011;1921;49.368;11.068;2022-08-03T10:57:40;73.85;;;55.53;;
3811;SDS011;1921;49.368;11.068;2022-08-03T11:00:07;71.15;;;55.65;;
3811;SDS011;1921;49.368;11.068;2022-08-03T11:08:31;68.95;;;55.75;;
3811;SDS011;1921;49.368;11.068;2022-08-03T11:16:36;68.40;;;55.55;;
3811;SDS011;1921;49.368;11.068;2022-08-03T11:19:04;71.30;;;55.45;;
3811;SDS011;1921;49.368;11.068;2022-08-03T11:29:52;68.28;;;55.22;;
3811;SDS011;1921;49.368;11.068;2022-08-03T11:33:06;69.97;;;55.17;;
3811;SDS011;1921;49.368;11.068;2022-08-03T11:35:32;69.18;;;55.58;;
3811;SDS011;1921;49.368;11.068;2022-08-03T11:38:08;69.38;;;55.33;;
3811;SDS011;1921;49.368;11.068;2022-08-03T11:40:36;69.72;;;55.72;;
3811;SDS011;1921;49.368;11.068;2022-08-03T11:45:58;68.72;;;55.67;;
3811;SDS011;1921;49.368;11.068;2022-08-03T11:48:46;70.70;;;55.83;;
3811;SDS011;1921;49.368;11.068;2022-08-03T11:51:27;71.03;;;56.58;;
3811;SDS011;1921;49.368;11.068;2022-08-03T11:53:57;69.60;;;56.10;;
3811;SDS011;1921;49.368;11.068;2022-08-03T11:56:26;74.43;;;55.85;;
3811;SDS011;1921;49.368;11.068;2022-08-03T11:59:07;70.88;;;56.05;;
3811;SDS011;1921;49.368;11.068;2022-08-03T12:01:32;69.97;;;56.05;;
3811;SDS011;1921;49.368;11.068;2022-08-03T12:04:01;70.53;;;56.28;;
3811;SDS011;1921;49.368;11.068;2022-08-03T12:06:28;70.45;;;56.40;;
3811;SDS011;1921;49.368;11.068;2022-08-03T12:08:54;70.78;;;56.65;;
3811;SDS011;1921;49.368;11.068;2022-08-03T12:11:20;71.15;;;56.40;;
3811;SDS011;1921;49.368;11.068;2022-08-03T12:13:48;70.13;;;56.38;;
3811;SDS011;1921;49.368;11.068;2022-08-03T12:16:19;73.40;;;56.60;;
3811;SDS011;1921;49.368;11.068;2022-08-03T12:21:31;71.78;;;56.80;;
3811;SDS011;1921;49.368;11.068;2022-08-03T12:23:57;73.07;;;56.97;;
3811;SDS011;1921;49.368;11.068;2022-08-03T12:26:26;71.05;;;57.08;;
3811;SDS011;1921;49.368;11.068;2022-08-03T12:28:53;74.85;;;57.60;;
3811;SDS011;1921;49.368;11.068;2022-08-03T12:31:19;71.43;;;57.47;;
3811;SDS011;1921;49.368;11.068;2022-08-03T12:36:26;70.05;;;56.63;;
3811;SDS011;1921;49.368;11.068;2022-08-03T12:38:55;69.20;;;56.22;;
3811;SDS011;1921;49.368;11.068;2022-08-03T12:41:28;69.88;;;56.78;;
3811;SDS011;1921;49.368;11.068;2022-08-03T12:43:57;73.75;;;55.90;;
3811;SDS011;1921;49.368;11.068;2022-08-03T12:46:28;71.43;;;56.13;;
3811;SDS011;1921;49.368;11.068;2022-08-03T12:54:17;71.35;;;56.78;;
3811;SDS011;1921;49.368;11.068;2022-08-03T12:59:35;71.25;;;57.50;;
3811;SDS011;1921;49.368;11.068;2022-08-03T13:02:14;69.97;;;56.72;;
3811;SDS011;1921;49.368;11.068;2022-08-03T13:04:46;70.22;;;56.55;;
3811;SDS011;1921;49.368;11.068;2022-08-03T13:07:15;70.25;;;56.83;;
3811;SDS011;1921;49.368;11.068;2022-08-03T13:09:43;70.82;;;57.13;;
3811;SDS011;1921;49.368;11.068;2022-08-03T13:12:15;70.15;;;56.65;;
3811;SDS011;1921;49.368;11.068;2022-08-03T13:14:46;69.32;;;56.28;;
3811;SDS011;1921;49.368;11.068;2022-08-03T13:17:17;70.30;;;56.38;;
3811;SDS011;1921;49.368;11.068;2022-08-03T13:19:44;70.00;;;56.72;;
3811;SDS011;1921;49.368;11.068;2022-08-03T13:22:12;70.72;;;57.15;;
3811;SDS011;1921;49.368;11.068;2022-08-03T13:24:40;70.90;;;56.88;;
3811;SDS011;1921;49.368;11.068;2022-08-03T13:27:07;70.63;;;56.83;;
3811;SDS011;1921;49.368;11.068;2022-08-03T13:29:33;69.43;;;56.72;;
3811;SDS011;1921;49.368;11.068;2022-08-03T13:32:01;69.60;;;56.33;;
3811;SDS011;1921;49.368;11.068;2022-08-03T13:34:28;71.53;;;56.90;;
3811;SDS011;1921;49.368;11.068;2022-08-03T13:36:54;70.28;;;56.28;;
3811;SDS011;1921;49.368;11.068;2022-08-03T13:39:20;73.20;;;56.58;;
3811;SDS011;1921;49.368;11.068;2022-08-03T13:41:46;71.30;;;56.47;;
3811;SDS011;1921;49.368;11.068;2022-08-03T13:44:12;71.70;;;56.42;;
3811;SDS011;1921;49.368;11.068;2022-08-03T13:46:38;69.18;;;55.92;;
3811;SDS011;1921;49.368;11.068;2022-08-03T13:49:04;71.10;;;56.35;;
3811;SDS011;1921;49.368;11.068;2022-08-03T13:51:31;70.63;;;56.67;;
3811;SDS011;1921;49.368;11.068;2022-08-03T13:53:57;69.75;;;56.70;;
3811;SDS011;1921;49.368;11.068;2022-08-03T13:56:26;71.97;;;56.55;;
3811;SDS011;1921;49.368;11.068;2022-08-03T13:58:53;70.43;;;56.70;;
3811;SDS011;1921;49.368;11.068;2022-08-03T14:01:19;72.63;;;56.92;;
3811;SDS011;1921;49.368;11.068;2022-08-03T14:03:46;78.00;;;56.75;;
3811;SDS011;1921;49.368;11.068;2022-08-03T14:06:14;73.55;;;56.97;;
3811;SDS011;1921;49.368;11.068;2022-08-03T14:08:40;71.32;;;56.90;;
3811;SDS011;1921;49.368;11.068;2022-08-03T14:11:06;71.05;;;57.17;;
3811;SDS011;1921;49.368;11.068;2022-08-03T14:13:31;70.78;;;56.67;;
3811;SDS011;1921;49.368;11.068;2022-08-03T14:15:57;70.45;;;56.65;;
3811;SDS011;1921;49.368;11.068;2022-08-03T14:18:23;69.88;;;56.35;;
3811;SDS011;1921;49.368;11.068;2022-08-03T14:20:49;69.90;;;56.47;;
3811;SDS011;1921;49.368;11.068;2022-08-03T14:23:15;71.40;;;56.88;;
3811;SDS011;1921;49.368;11.068;2022-08-03T14:25:41;71.32;;;56.40;;
3811;SDS011;1921;49.368;11.068;2022-08-03T14:28:07;69.45;;;56.38;;
3811;SDS011;1921;49.368;11.068;2022-08-03T14:30:33;69.93;;;56.58;;
3811;SDS011;1921;49.368;11.068;2022-08-03T14:32:59;71.15;;;57.30;;
3811;SDS011;1921;49.368;11.068;2022-08-03T14:35:25;72.70;;;57.40;;
3811;SDS011;1921;49.368;11.068;2022-08-03T14:37:50;80.65;;;62.03;;
3811;SDS011;1921;49.368;11.068;2022-08-03T14:40:17;74.55;;;58.42;;
3811;SDS011;1921;49.368;11.068;2022-08-03T14:42:44;73.97;;;57.20;;
3811;SDS011;1921;49.368;11.068;2022-08-03T14:45:10;71.22;;;57.83;;
3811;SDS011;1921;49.368;11.068;2022-08-03T14:47:37;72.53;;;57.13;;
3811;SDS011;1921;49.368;11.068;2022-08-03T14:50:04;70.80;;;56.90;;
3811;SDS011;1921;49.368;11.068;2022-08-03T14:52:32;72.15;;;56.92;;
3811;SDS011;1921;49.368;11.068;2022-08-03T14:54:58;70.00;;;56.78;;
3811;SDS011;1921;49.368;11.068;2022-08-03T14:57:24;70.20;;;56.58;;
3811;SDS011;1921;49.368;11.068;2022-08-03T14:59:51;69.78;;;56.85;;
3811;SDS011;1921;49.368;11.068;2022-08-03T15:02:17;70.18;;;56.22;;
3811;SDS011;1921;49.368;11.068;2022-08-03T15:04:44;70.43;;;56.63;;
3811;SDS011;1921;49.368;11.068;2022-08-03T15:07:10;70.60;;;56.72;;
3811;SDS011;1921;49.368;11.068;2022-08-03T15:09:35;69.20;;;56.47;;
3811;SDS011;1921;49.368;11.068;2022-08-03T15:12:03;70.57;;;56.95;;
3811;SDS011;1921;49.368;11.068;2022-08-03T15:14:30;70.25;;;57.10;;
3811;SDS011;1921;49.368;11.068;2022-08-03T15:16:56;69.95;;;56.42;;
3811;SDS011;1921;49.368;11.068;2022-08-03T15:19:23;69.63;;;56.85;;
3811;SDS011;1921;49.368;11.068;2022-08-03T15:21:48;75.78;;;56.47;;
3811;SDS011;1921;49.368;11.068;2022-08-03T15:24:14;69.05;;;56.33;;
3811;SDS011;1921;49.368;11.068;2022-08-03T15:26:40;70.40;;;56.20;;
3811;SDS011;1921;49.368;11.068;2022-08-03T15:29:06;69.78;;;56.25;;
3811;SDS011;1921;49.368;11.068;2022-08-03T15:31:32;72.15;;;56.47;;
3811;SDS011;1921;49.368;11.068;2022-08-03T15:33:58;70.03;;;56.17;;
3811;SDS011;1921;49.368;11.068;2022-08-03T15:36:24;70.07;;;56.50;;
3811;SDS011;1921;49.368;11.068;2022-08-03T15:38:50;70.18;;;56.63;;
3811;SDS011;1921;49.368;11.068;2022-08-03T15:41:16;69.75;;;56.58;;